Terminal Aerodrome Forecast
Issued by NWS Pueblo, CO

Home | Current Version | Previous Version | Text Only | Print | Product List | Glossary On
Versions: 1 2 3 4 5 6 7 8 9 10 11 12 13 14 15 16 17 18 19 20 21 22 23 24 25 26 27 28 29 30 31 32 33 34 35 36 37 38 39 40 41
000
FTUS45 KPUB 240534
TAFCOS
TAF
KCOS 240534Z 2406/2506 35009KT P6SM FEW150
     FM241000 VRB05KT P6SM SCT010
     FM241400 15006KT P6SM FEW250
     FM241800 18012G22KT P6SM FEW140 SCT250
     FM242100 29015G25KT P6SM SCT140 SCT250
     FM250200 26011KT P6SM SCT140 SCT250=

USA.gov is the U.S. government's official web portal to all federal, state and local government web resources and services.